createdAt,value
2023-03-02T00:00:00.000Z,1.34
2023-03-02T00:15:00.000Z,0.86
2023-03-02T00:30:00.000Z,0.98
2023-03-02T00:45:00.000Z,1.06
2023-03-02T01:00:00.000Z,1.08
2023-03-02T01:15:00.000Z,0.98
2023-03-02T01:30:00.000Z,1.11
2023-03-02T01:45:00.000Z,0.93
2023-03-02T02:00:00.000Z,0.85
2023-03-02T02:15:00.000Z,0.87
2023-03-02T02:30:00.000Z,0.88
2023-03-02T02:45:00.000Z,0.75
2023-03-02T03:00:00.000Z,0.83
2023-03-02T03:15:00.000Z,0.82
2023-03-02T03:30:00.000Z,0.92
2023-03-02T03:45:00.000Z,0.86
2023-03-02T04:00:00.000Z,0.98
2023-03-02T04:15:00.000Z,0.84
2023-03-02T04:30:00.000Z,0.67
2023-03-02T04:45:00.000Z,0.87
2023-03-02T05:00:00.000Z,0.87
2023-03-02T05:15:00.000Z,0.73
2023-03-02T05:30:00.000Z,0.65
2023-03-02T05:45:00.000Z,0.67
2023-03-02T06:00:00.000Z,0.7
2023-03-02T06:15:00.000Z,1.03
2023-03-02T06:30:00.000Z,1.66
2023-03-02T06:45:00.000Z,2.86
2023-03-02T07:00:00.000Z,3.85
2023-03-02T07:15:00.000Z,6.79
2023-03-02T07:30:00.000Z,6.86
2023-03-02T07:45:00.000Z,9.24
2023-03-02T08:00:00.000Z,10.03
2023-03-02T08:15:00.000Z,11.31
2023-03-02T08:30:00.000Z,11.74
2023-03-02T08:45:00.000Z,12.91
2023-03-02T09:00:00.000Z,13.83
2023-03-02T09:15:00.000Z,14.01
2023-03-02T09:30:00.000Z,14.91
2023-03-02T09:45:00.000Z,15.19
2023-03-02T10:00:00.000Z,16.02
2023-03-02T10:15:00.000Z,15.89
2023-03-02T10:30:00.000Z,15.79
2023-03-02T10:45:00.000Z,15.93
2023-03-02T11:00:00.000Z,13.71
2023-03-02T11:15:00.000Z,14.27
2023-03-02T11:30:00.000Z,13.86
2023-03-02T11:45:00.000Z,14.97
2023-03-02T12:00:00.000Z,15.18
2023-03-02T12:15:00.000Z,15.24
2023-03-02T12:30:00.000Z,14.95
2023-03-02T12:45:00.000Z,13.98
2023-03-02T13:00:00.000Z,13.6
2023-03-02T13:15:00.000Z,13.66
2023-03-02T13:30:00.000Z,13.49
2023-03-02T13:45:00.000Z,13.3
2023-03-02T14:00:00.000Z,13.22
2023-03-02T14:15:00.000Z,13.03
2023-03-02T14:30:00.000Z,12.84
2023-03-02T14:45:00.000Z,12.63
2023-03-02T15:00:00.000Z,12.52
2023-03-02T15:15:00.000Z,12.45
2023-03-02T15:30:00.000Z,12.17
2023-03-02T15:45:00.000Z,11.93
2023-03-02T16:00:00.000Z,11.59
2023-03-02T16:15:00.000Z,11.25
2023-03-02T16:30:00.000Z,10.91
2023-03-02T16:45:00.000Z,10.56
2023-03-02T17:00:00.000Z,10.25
2023-03-02T17:15:00.000Z,9.79
2023-03-02T17:30:00.000Z,9.42
2023-03-02T17:45:00.000Z,8.87
2023-03-02T18:00:00.000Z,8.67
2023-03-02T18:15:00.000Z,8.46
2023-03-02T18:30:00.000Z,8.05
2023-03-02T18:45:00.000Z,7.85
2023-03-02T19:00:00.000Z,7.47
2023-03-02T19:15:00.000Z,7.05
2023-03-02T19:30:00.000Z,6.57
2023-03-02T19:45:00.000Z,6.32
2023-03-02T20:00:00.000Z,6.17
2023-03-02T20:15:00.000Z,5.95
2023-03-02T20:30:00.000Z,5.59
2023-03-02T20:45:00.000Z,5.31
2023-03-02T21:00:00.000Z,5.17
2023-03-02T21:15:00.000Z,5.24
2023-03-02T21:30:00.000Z,5.18
2023-03-02T21:45:00.000Z,4.99
2023-03-02T22:00:00.000Z,4.58
2023-03-02T22:15:00.000Z,4.24
2023-03-02T22:30:00.000Z,3.97
2023-03-02T22:45:00.000Z,3.76
2023-03-02T23:00:00.000Z,3.72
2023-03-02T23:15:00.000Z,3.56
2023-03-02T23:30:00.000Z,3.57
2023-03-02T23:45:00.000Z,3.61
